createdAt,value
2023-01-28T00:00:02.604Z,33.67
2023-01-28T00:02:53.799Z,34.00
2023-01-28T00:05:25.642Z,37.00
2023-01-28T00:07:54.165Z,36.00
2023-01-28T00:10:23.047Z,36.67
2023-01-28T00:12:51.633Z,43.00
2023-01-28T00:15:20.317Z,39.00
2023-01-28T00:17:48.898Z,40.00
2023-01-28T00:20:17.690Z,40.67
2023-01-28T00:22:52.011Z,36.00
2023-01-28T00:25:21.508Z,29.00
2023-01-28T00:27:50.616Z,33.50
2023-01-28T00:30:19.798Z,22.00
2023-01-28T00:32:48.608Z,37.50
2023-01-28T00:35:17.698Z,33.00
2023-01-28T00:37:47.705Z,26.33
2023-01-28T00:40:16.795Z,26.00
2023-01-28T00:42:45.690Z,33.67
2023-01-28T00:45:16.406Z,39.33
2023-01-28T00:47:45.544Z,30.67
2023-01-28T00:50:15.325Z,45.00
2023-01-28T00:52:44.829Z,28.50
2023-01-28T00:55:14.075Z,27.00
2023-01-28T00:57:43.222Z,34.00
2023-01-28T01:00:12.522Z,30.00
2023-01-28T01:02:42.222Z,30.50
2023-01-28T01:05:11.120Z,39.50
2023-01-28T01:07:42.778Z,34.00
2023-01-28T01:10:17.308Z,46.67
2023-01-28T01:12:50.079Z,28.50
2023-01-28T01:15:20.156Z,41.00
2023-01-28T01:17:50.570Z,37.00
2023-01-28T01:20:25.429Z,33.00
2023-01-28T01:22:55.163Z,34.00
2023-01-28T01:25:23.746Z,36.00
2023-01-28T01:27:52.443Z,31.00
2023-01-28T01:30:21.630Z,33.33
2023-01-28T01:32:50.419Z,31.00
2023-01-28T01:35:19.212Z,31.00
2023-01-28T01:37:48.197Z,40.00
2023-01-28T01:40:17.498Z,33.33
2023-01-28T01:42:46.080Z,37.00
2023-01-28T01:45:15.537Z,36.50
2023-01-28T01:47:59.938Z,20.33
2023-01-28T01:50:56.886Z,39.00
2023-01-28T01:53:27.620Z,41.00
2023-01-28T01:56:02.356Z,35.50
2023-01-28T01:58:35.947Z,27.00
2023-01-28T02:01:07.357Z,37.00
2023-01-28T02:03:53.695Z,34.50
2023-01-28T02:06:23.403Z,40.00
2023-01-28T02:08:56.166Z,30.50
2023-01-28T02:11:30.712Z,43.00
2023-01-28T02:14:04.666Z,54.67
2023-01-28T02:16:33.828Z,36.50
2023-01-28T02:19:02.705Z,45.50
2023-01-28T02:21:50.945Z,29.33
2023-01-28T02:24:29.930Z,46.00
2023-01-28T02:27:14.328Z,48.50
2023-01-28T02:30:07.897Z,37.00
2023-01-28T02:33:12.219Z,34.00
2023-01-28T02:35:52.687Z,29.33
2023-01-28T02:38:29.453Z,45.00
2023-01-28T02:41:10.117Z,34.00
2023-01-28T02:43:44.965Z,45.75
2023-01-28T02:46:38.516Z,37.00
2023-01-28T02:49:20.520Z,48.00
2023-01-28T02:52:06.915Z,42.50
2023-01-28T02:55:05.402Z,38.00
2023-01-28T02:57:46.885Z,34.00
2023-01-28T03:00:27.552Z,39.00
2023-01-28T03:03:19.074Z,31.50
2023-01-28T03:06:04.446Z,33.00
2023-01-28T03:09:09.179Z,36.50
2023-01-28T03:12:03.468Z,47.33
2023-01-28T03:14:53.140Z,55.00
2023-01-28T03:17:49.678Z,34.33
2023-01-28T03:20:38.843Z,61.00
2023-01-28T03:23:33.542Z,43.00
2023-01-28T03:26:26.186Z,34.00
2023-01-28T03:29:22.008Z,27.50
2023-01-28T03:32:10.862Z,35.67
2023-01-28T03:34:59.314Z,35.00
2023-01-28T03:37:28.818Z,33.00
2023-01-28T03:40:20.137Z,44.00
2023-01-28T03:42:49.231Z,45.67
2023-01-28T03:45:39.316Z,44.00
2023-01-28T03:48:08.412Z,39.00
2023-01-28T03:50:37.302Z,53.33
2023-01-28T03:53:16.916Z,43.00
2023-01-28T03:55:53.435Z,43.00
2023-01-28T03:58:23.225Z,49.67
2023-01-28T04:00:55.696Z,49.67
2023-01-28T04:03:24.895Z,36.00
2023-01-28T04:06:05.791Z,42.50
2023-01-28T04:08:53.712Z,49.00
2023-01-28T04:11:31.297Z,45.50
2023-01-28T04:14:02.961Z,50.00
2023-01-28T04:17:10.910Z,34.50
2023-01-28T04:19:40.687Z,39.00
2023-01-28T04:22:12.302Z,46.33
2023-01-28T04:24:42.367Z,37.00
2023-01-28T04:27:11.230Z,40.00
2023-01-28T04:29:40.118Z,49.00
2023-01-28T04:32:27.443Z,39.00
2023-01-28T04:35:17.709Z,36.50
2023-01-28T04:37:56.560Z,51.00
2023-01-28T04:40:53.200Z,41.50
2023-01-28T04:43:30.690Z,43.00
2023-01-28T04:46:18.349Z,43.50
2023-01-28T04:48:57.460Z,37.00
2023-01-28T04:51:52.348Z,44.50
2023-01-28T04:54:41.103Z,39.00
2023-01-28T04:57:09.789Z,37.50
2023-01-28T04:59:38.578Z,37.50
2023-01-28T05:02:07.799Z,48.50
2023-01-28T05:04:36.665Z,53.50
2023-01-28T05:09:35.481Z,45.00
2023-01-28T05:12:04.875Z,51.50
2023-01-28T05:14:34.594Z,45.50
2023-01-28T05:17:07.602Z,36.50
2023-01-28T05:19:37.174Z,48.33
2023-01-28T05:22:09.955Z,28.33
2023-01-28T05:24:45.091Z,45.00
2023-01-28T05:27:13.880Z,50.50
2023-01-28T05:29:42.570Z,47.67
2023-01-28T05:32:11.941Z,43.00
2023-01-28T05:34:40.830Z,44.33
2023-01-28T05:37:13.644Z,51.00
2023-01-28T05:39:42.735Z,48.00
2023-01-28T05:42:11.525Z,52.00
2023-01-28T05:44:45.940Z,51.00
2023-01-28T05:47:35.003Z,60.00
2023-01-28T05:50:17.965Z,49.67
2023-01-28T05:53:07.324Z,57.00
2023-01-28T05:55:37.415Z,48.00
2023-01-28T05:58:06.505Z,62.00
2023-01-28T06:00:35.094Z,50.00
2023-01-28T06:03:04.087Z,53.33
2023-01-28T06:05:33.095Z,64.00
2023-01-28T06:08:04.321Z,42.33
2023-01-28T06:10:33.216Z,68.00
2023-01-28T06:13:02.511Z,51.50
2023-01-28T06:15:31.218Z,58.00
2023-01-28T06:18:05.824Z,57.33
2023-01-28T06:20:36.042Z,49.00
2023-01-28T06:23:05.134Z,60.50
2023-01-28T06:25:34.139Z,69.50
2023-01-28T06:28:08.241Z,58.00
2023-01-28T06:30:36.845Z,50.33
2023-01-28T06:33:06.742Z,45.00
2023-01-28T06:35:36.346Z,69.50
2023-01-28T06:38:04.931Z,59.00
2023-01-28T06:40:34.330Z,54.00
2023-01-28T06:43:03.629Z,67.00
2023-01-28T06:45:33.550Z,67.00
2023-01-28T06:48:03.953Z,48.50
2023-01-28T06:50:32.764Z,68.00
2023-01-28T06:53:01.443Z,47.00
2023-01-28T06:55:30.338Z,49.00
2023-01-28T06:57:59.329Z,66.50
2023-01-28T07:00:28.010Z,57.67
2023-01-28T07:02:57.672Z,58.00
2023-01-28T07:05:26.815Z,57.00
2023-01-28T07:07:55.603Z,51.50
2023-01-28T07:10:24.392Z,62.50
2023-01-28T07:12:53.079Z,67.00
2023-01-28T07:15:21.872Z,49.00
2023-01-28T07:17:50.560Z,58.00
2023-01-28T07:20:20.479Z,61.00
2023-01-28T07:22:49.154Z,58.50
2023-01-28T07:25:18.039Z,60.50
2023-01-28T07:27:48.295Z,49.00
2023-01-28T07:30:18.748Z,64.00
2023-01-28T07:32:48.103Z,55.50
2023-01-28T07:35:16.983Z,61.00
2023-01-28T07:37:54.676Z,54.00
2023-01-28T07:40:24.175Z,61.00
2023-01-28T07:42:55.489Z,71.50
2023-01-28T07:45:25.967Z,69.00
2023-01-28T07:47:59.056Z,67.67
2023-01-28T07:50:29.569Z,61.00
2023-01-28T07:52:59.439Z,69.00
2023-01-28T07:55:31.195Z,54.00
2023-01-28T07:58:07.302Z,71.00
2023-01-28T08:00:37.932Z,57.00
2023-01-28T08:03:16.937Z,58.00
2023-01-28T08:05:49.069Z,58.33
2023-01-28T08:08:18.121Z,39.50
2023-01-28T08:10:47.317Z,56.50
2023-01-28T08:13:17.230Z,49.00
2023-01-28T08:15:47.400Z,46.50
2023-01-28T08:18:17.056Z,63.00
2023-01-28T08:20:47.576Z,61.00
2023-01-28T08:23:17.910Z,42.50
2023-01-28T08:25:47.937Z,59.00
2023-01-28T08:28:17.658Z,48.67
2023-01-28T08:30:47.009Z,49.00
2023-01-28T08:33:17.697Z,63.67
2023-01-28T08:35:46.763Z,51.00
2023-01-28T08:38:17.833Z,58.00
2023-01-28T08:40:47.923Z,76.00
2023-01-28T08:43:17.428Z,46.00
2023-01-28T08:45:46.421Z,68.00
2023-01-28T08:48:17.318Z,58.00
2023-01-28T08:50:46.584Z,67.00
2023-01-28T08:53:20.480Z,60.50
2023-01-28T08:55:49.362Z,50.50
2023-01-28T08:58:19.275Z,68.50
2023-01-28T09:00:49.390Z,57.00
2023-01-28T09:03:18.685Z,64.00
2023-01-28T09:05:49.726Z,49.00
2023-01-28T09:08:18.724Z,59.00
2023-01-28T09:10:47.408Z,60.00
2023-01-28T09:13:16.465Z,36.00
2023-01-28T09:15:45.351Z,46.00
2023-01-28T09:18:14.278Z,55.50
2023-01-28T09:20:43.070Z,62.00
2023-01-28T09:23:12.266Z,66.00
2023-01-28T09:25:41.377Z,57.00
2023-01-28T09:28:10.049Z,66.00
2023-01-28T09:30:39.816Z,60.00
2023-01-28T09:33:09.291Z,51.50
2023-01-28T09:35:38.251Z,51.67
2023-01-28T09:38:07.038Z,66.00
2023-01-28T09:40:40.743Z,56.00
2023-01-28T09:43:19.576Z,46.33
2023-01-28T09:45:50.999Z,47.00
2023-01-28T09:48:24.824Z,52.00
2023-01-28T09:50:55.657Z,49.00
2023-01-28T09:53:29.692Z,52.00
2023-01-28T09:56:04.991Z,52.00
2023-01-28T09:58:33.698Z,54.67
2023-01-28T10:01:18.967Z,65.50
2023-01-28T10:03:56.676Z,48.00
2023-01-28T10:06:40.405Z,55.50
2023-01-28T10:09:34.379Z,57.00
2023-01-28T10:12:36.244Z,38.00
2023-01-28T10:15:26.024Z,45.00
2023-01-28T10:18:16.507Z,50.00
2023-01-28T10:20:51.347Z,34.00
2023-01-28T10:23:43.796Z,54.00
2023-01-28T10:26:26.099Z,37.00
2023-01-28T10:28:58.686Z,39.50
2023-01-28T10:31:34.459Z,42.33
2023-01-28T10:34:04.726Z,65.00
2023-01-28T10:36:34.559Z,51.50
2023-01-28T10:39:03.454Z,46.00
2023-01-28T10:41:32.748Z,52.00
2023-01-28T10:44:01.339Z,53.67
2023-01-28T10:46:36.675Z,49.00
2023-01-28T10:49:18.568Z,58.00
2023-01-28T10:51:47.969Z,56.50
2023-01-28T10:54:25.877Z,59.00
2023-01-28T10:57:09.508Z,34.33
2023-01-28T10:59:41.999Z,45.50
2023-01-28T11:02:33.268Z,48.67
2023-01-28T11:05:05.067Z,36.67
2023-01-28T11:07:34.354Z,49.00
2023-01-28T11:10:03.259Z,48.00
2023-01-28T11:12:31.933Z,42.00
2023-01-28T11:15:05.227Z,44.00
2023-01-28T11:17:38.245Z,60.75
2023-01-28T11:20:19.583Z,52.00
2023-01-28T11:22:49.825Z,51.33
2023-01-28T11:25:23.934Z,43.00
2023-01-28T11:27:54.661Z,47.50
2023-01-28T11:30:37.876Z,44.00
2023-01-28T11:33:22.856Z,46.25
2023-01-28T11:35:57.224Z,45.50
2023-01-28T11:38:26.809Z,37.00
2023-01-28T11:40:58.151Z,53.50
2023-01-28T11:43:30.099Z,67.00
2023-01-28T11:46:06.885Z,67.00
2023-01-28T11:48:54.193Z,40.00
2023-01-28T11:51:39.558Z,62.00
2023-01-28T11:54:46.440Z,67.00
2023-01-28T11:57:24.586Z,53.50
2023-01-28T12:00:16.548Z,57.50
2023-01-28T12:02:59.088Z,61.50
2023-01-28T12:05:40.573Z,48.50
2023-01-28T12:08:12.231Z,61.00
2023-01-28T12:10:53.201Z,51.00
2023-01-28T12:13:24.598Z,65.00
2023-01-28T12:16:15.032Z,67.00
2023-01-28T12:18:46.385Z,55.00
2023-01-28T12:23:55.311Z,72.00
2023-01-28T12:26:56.293Z,60.00
2023-01-28T12:30:09.358Z,73.00
2023-01-28T12:32:53.146Z,60.00
2023-01-28T12:35:35.763Z,66.50
2023-01-28T12:38:09.321Z,70.00
2023-01-28T12:41:03.957Z,73.00
2023-01-28T12:43:51.271Z,72.00
2023-01-28T12:46:32.659Z,63.00
2023-01-28T12:49:08.406Z,64.00
2023-01-28T12:52:01.922Z,66.00
2023-01-28T12:54:44.571Z,67.00
2023-01-28T12:57:26.787Z,70.00
2023-01-28T13:00:42.352Z,56.50
2023-01-28T13:03:35.965Z,59.50
2023-01-28T13:06:20.198Z,46.67
2023-01-28T13:08:49.691Z,44.00
2023-01-28T13:11:20.115Z,64.50
2023-01-28T13:13:49.435Z,42.00
2023-01-28T13:16:21.264Z,64.00
2023-01-28T13:19:09.627Z,61.00
2023-01-28T13:21:48.682Z,63.50
2023-01-28T13:24:22.591Z,48.50
2023-01-28T13:26:54.701Z,50.75
2023-01-28T13:29:26.096Z,18.00
2023-01-28T13:32:03.435Z,58.33
2023-01-28T13:34:44.575Z,38.50
2023-01-28T13:37:40.820Z,40.00
2023-01-28T13:40:15.517Z,71.50
2023-01-28T13:42:43.968Z,40.00
2023-01-28T13:45:15.460Z,47.33
2023-01-28T13:47:51.903Z,43.00
2023-01-28T13:50:28.646Z,51.00
2023-01-28T13:53:07.709Z,54.00
2023-01-28T13:55:45.041Z,45.00
2023-01-28T13:58:39.583Z,60.00
2023-01-28T14:01:20.666Z,45.00
2023-01-28T14:03:55.486Z,32.00
2023-01-28T14:06:33.488Z,53.00
2023-01-28T14:09:08.321Z,44.50
2023-01-28T14:11:55.340Z,43.00
2023-01-28T14:14:45.888Z,46.00
2023-01-28T14:17:20.617Z,42.50
2023-01-28T14:19:51.003Z,45.00
2023-01-28T14:22:21.365Z,61.50
2023-01-28T14:24:50.545Z,42.50
2023-01-28T14:27:28.388Z,55.00
2023-01-28T14:30:29.347Z,37.00
2023-01-28T14:32:58.094Z,39.00
2023-01-28T14:35:32.805Z,60.50
2023-01-28T14:38:09.539Z,54.00
2023-01-28T14:40:40.314Z,52.50
2023-01-28T14:43:16.539Z,36.33
2023-01-28T14:45:56.984Z,39.00
2023-01-28T14:48:56.044Z,34.00
2023-01-28T14:51:48.656Z,44.67
2023-01-28T14:54:32.973Z,42.50
2023-01-28T14:57:29.021Z,63.00
2023-01-28T14:59:58.653Z,44.00
2023-01-28T15:02:30.218Z,37.00
2023-01-28T15:05:29.764Z,43.00
2023-01-28T15:07:58.293Z,34.00
2023-01-28T15:10:33.249Z,39.00
2023-01-28T15:13:30.939Z,34.00
2023-01-28T15:16:00.866Z,33.00
2023-01-28T15:18:41.756Z,33.50
2023-01-28T15:21:10.892Z,37.00
2023-01-28T15:23:43.314Z,48.00
2023-01-28T15:26:21.778Z,44.00
2023-01-28T15:28:51.672Z,37.00
2023-01-28T15:31:30.277Z,34.00
2023-01-28T15:34:12.416Z,39.00
2023-01-28T15:36:41.517Z,25.00
2023-01-28T15:39:21.366Z,37.00
2023-01-28T15:42:02.132Z,24.33
2023-01-28T15:44:45.833Z,44.25
2023-01-28T15:47:18.581Z,49.00
2023-01-28T15:49:50.667Z,42.00
2023-01-28T15:52:20.892Z,28.00
2023-01-28T15:54:52.719Z,48.00
2023-01-28T15:57:27.482Z,46.00
2023-01-28T16:00:13.466Z,37.00
2023-01-28T16:02:53.085Z,42.00
2023-01-28T16:05:27.728Z,54.00
2023-01-28T16:07:57.725Z,37.00
2023-01-28T16:10:28.984Z,38.33
2023-01-28T16:13:12.269Z,32.33
2023-01-28T16:15:47.443Z,31.00
2023-01-28T16:18:47.580Z,27.00
2023-01-28T16:21:27.929Z,39.00
2023-01-28T16:24:03.101Z,42.75
2023-01-28T16:26:34.836Z,41.00
2023-01-28T16:29:15.651Z,33.00
2023-01-28T16:31:44.253Z,36.00
2023-01-28T16:34:12.902Z,36.00
2023-01-28T16:36:41.481Z,39.33
2023-01-28T16:39:10.132Z,39.50
2023-01-28T16:41:43.619Z,19.00
2023-01-28T16:44:18.051Z,28.00
2023-01-28T16:46:47.088Z,25.00
2023-01-28T16:49:15.676Z,27.50
2023-01-28T16:51:44.263Z,33.00
2023-01-28T16:54:17.195Z,42.75
2023-01-28T16:56:46.888Z,30.00
2023-01-28T16:59:17.015Z,24.67
2023-01-28T17:01:46.085Z,33.00
2023-01-28T17:04:15.012Z,10.00
2023-01-28T17:06:45.358Z,24.25
2023-01-28T17:09:14.967Z,33.00
2023-01-28T17:11:43.651Z,28.50
2023-01-28T17:14:12.273Z,34.50
2023-01-28T17:16:41.202Z,39.00
2023-01-28T17:19:09.866Z,22.00
2023-01-28T17:21:38.415Z,38.00
2023-01-28T17:24:07.685Z,36.50
2023-01-28T17:26:38.231Z,22.33
2023-01-28T17:29:08.219Z,27.00
2023-01-28T17:31:36.988Z,33.00
2023-01-28T17:34:07.287Z,33.00
2023-01-28T17:36:36.253Z,35.00
2023-01-28T17:39:07.004Z,30.00
2023-01-28T17:41:35.865Z,27.67
2023-01-28T17:44:04.714Z,25.00
2023-01-28T17:46:33.670Z,23.67
2023-01-28T17:49:03.191Z,28.00
2023-01-28T17:51:31.801Z,42.50
2023-01-28T17:54:00.347Z,25.00
2023-01-28T17:56:29.961Z,34.00
2023-01-28T17:59:04.698Z,31.00
2023-01-28T18:01:35.871Z,27.50
2023-01-28T18:04:04.652Z,35.00
2023-01-28T18:06:35.016Z,20.00
2023-01-28T18:09:05.181Z,27.00
2023-01-28T18:11:34.101Z,26.67
2023-01-28T18:14:02.637Z,33.00
2023-01-28T18:16:31.163Z,32.00
2023-01-28T18:18:59.856Z,33.00
2023-01-28T18:21:50.529Z,24.00
2023-01-28T18:24:24.528Z,31.00
2023-01-28T18:26:58.422Z,33.50
2023-01-28T18:29:31.555Z,31.00
2023-01-28T18:32:00.344Z,28.00
2023-01-28T18:34:31.796Z,24.00
2023-01-28T18:37:01.059Z,26.00
2023-01-28T18:42:00.564Z,29.00
2023-01-28T18:44:30.322Z,31.67
2023-01-28T18:46:59.260Z,36.50
2023-01-28T18:49:27.830Z,24.00
2023-01-28T18:51:56.356Z,36.50
2023-01-28T18:54:25.077Z,37.50
2023-01-28T18:56:53.771Z,39.33
2023-01-28T18:59:22.483Z,33.00
2023-01-28T19:01:51.014Z,29.75
2023-01-28T19:04:19.880Z,25.00
2023-01-28T19:06:49.014Z,36.00
2023-01-28T19:09:18.032Z,31.67
2023-01-28T19:11:48.537Z,38.50
2023-01-28T19:14:17.642Z,27.50
2023-01-28T19:16:46.488Z,30.50
2023-01-28T19:19:15.075Z,36.67
2023-01-28T19:21:43.741Z,30.00
2023-01-28T19:24:14.396Z,28.50
2023-01-28T19:26:45.029Z,26.00
2023-01-28T19:29:16.327Z,25.00
2023-01-28T19:31:49.189Z,29.00
2023-01-28T19:34:18.136Z,28.00
2023-01-28T19:36:47.631Z,21.00
2023-01-28T19:39:17.299Z,29.33
2023-01-28T19:41:45.939Z,18.00
2023-01-28T19:44:14.459Z,16.50
2023-01-28T19:46:43.100Z,18.00
2023-01-28T19:49:12.804Z,26.00
2023-01-28T19:51:41.432Z,34.00
2023-01-28T19:54:10.012Z,29.00
2023-01-28T19:56:38.882Z,29.33
2023-01-28T19:59:07.587Z,31.00
2023-01-28T20:01:36.913Z,28.00
2023-01-28T20:04:05.576Z,22.00
2023-01-28T20:06:35.386Z,37.00
2023-01-28T20:09:08.814Z,30.00
2023-01-28T20:11:37.308Z,25.00
2023-01-28T20:14:05.870Z,19.00
2023-01-28T20:16:35.924Z,30.00
2023-01-28T20:19:07.746Z,25.33
2023-01-28T20:21:36.716Z,36.00
2023-01-28T20:24:06.779Z,24.00
2023-01-28T20:26:37.658Z,36.50
2023-01-28T20:29:11.934Z,30.50
2023-01-28T20:31:42.556Z,31.00
2023-01-28T20:34:17.736Z,13.00
2023-01-28T20:36:46.996Z,31.00
2023-01-28T20:39:15.544Z,28.50
2023-01-28T20:41:44.124Z,36.67
2023-01-28T20:44:12.705Z,29.00
2023-01-28T20:46:41.544Z,25.67
2023-01-28T20:49:10.652Z,26.50
2023-01-28T20:51:39.447Z,23.00
2023-01-28T20:54:08.161Z,19.00
2023-01-28T20:56:36.733Z,22.00
2023-01-28T20:59:06.694Z,25.67
2023-01-28T21:01:35.777Z,22.00
2023-01-28T21:04:05.953Z,21.50
2023-01-28T21:06:36.648Z,18.00
2023-01-28T21:09:06.115Z,18.50
2023-01-28T21:11:35.105Z,23.33
2023-01-28T21:14:03.664Z,18.50
2023-01-28T21:16:32.464Z,10.00
2023-01-28T21:19:01.037Z,28.00
2023-01-28T21:21:29.955Z,22.67
2023-01-28T21:24:02.113Z,15.50
2023-01-28T21:26:30.700Z,25.75
2023-01-28T21:28:59.359Z,26.33
2023-01-28T21:31:28.094Z,28.00
2023-01-28T21:33:59.125Z,48.00
2023-01-28T21:36:28.868Z,28.00
2023-01-28T21:39:00.538Z,22.00
2023-01-28T21:41:29.289Z,27.00
2023-01-28T21:43:58.657Z,25.00
2023-01-28T21:46:32.440Z,24.00
2023-01-28T21:49:03.158Z,23.00
2023-01-28T21:51:39.846Z,29.00
2023-01-28T21:54:15.391Z,24.00
2023-01-28T21:56:45.627Z,24.50
2023-01-28T21:59:28.582Z,24.00
2023-01-28T22:02:12.350Z,22.00
2023-01-28T22:04:43.732Z,15.00
2023-01-28T22:07:17.191Z,17.00
2023-01-28T22:09:47.842Z,21.25
2023-01-28T22:12:16.672Z,29.50
2023-01-28T22:14:46.933Z,14.00
2023-01-28T22:17:19.255Z,27.67
2023-01-28T22:19:48.431Z,10.00
2023-01-28T22:22:17.840Z,13.67
2023-01-28T22:24:46.510Z,30.00
2023-01-28T22:27:15.306Z,23.50
2023-01-28T22:29:43.809Z,24.00
2023-01-28T22:32:12.357Z,19.50
2023-01-28T22:34:41.018Z,19.00
2023-01-28T22:37:10.624Z,26.50
2023-01-28T22:39:39.156Z,21.00
2023-01-28T22:42:07.707Z,19.00
2023-01-28T22:44:36.262Z,23.00
2023-01-28T22:47:04.822Z,22.50
2023-01-28T22:49:33.392Z,25.00
2023-01-28T22:52:01.916Z,24.33
2023-01-28T22:54:30.560Z,25.00
2023-01-28T22:56:59.389Z,17.33
2023-01-28T22:59:27.984Z,18.00
2023-01-28T23:01:56.495Z,23.75
2023-01-28T23:04:25.124Z,19.67
2023-01-28T23:06:53.691Z,23.00
2023-01-28T23:09:22.254Z,24.25
2023-01-28T23:11:50.755Z,27.00
2023-01-28T23:14:38.049Z,19.00
2023-01-28T23:17:25.246Z,13.00
2023-01-28T23:20:12.391Z,18.25
2023-01-28T23:22:59.522Z,26.00
2023-01-28T23:25:28.017Z,20.00
2023-01-28T23:27:56.523Z,25.00
2023-01-28T23:30:25.382Z,16.00
2023-01-28T23:32:57.768Z,22.00
2023-01-28T23:35:26.449Z,13.25
2023-01-28T23:37:55.893Z,19.00
2023-01-28T23:40:27.412Z,16.00
2023-01-28T23:42:57.044Z,28.00
2023-01-28T23:45:25.694Z,29.00
2023-01-28T23:47:54.290Z,19.00
2023-01-28T23:50:23.049Z,21.00
2023-01-28T23:52:51.569Z,18.00
2023-01-28T23:55:20.299Z,27.33
2023-01-28T23:57:48.872Z,21.50
